sensor_id;sensor_type;location;lat;lon;timestamp;P1;durP1;ratioP1;P2;durP2;ratioP2
60368;SDS011;46208;44.634;10.492;2023-03-13T00:00:03;2.05;;;1.75;;
60368;SDS011;46208;44.634;10.492;2023-03-13T00:03:08;6.00;;;1.10;;
60368;SDS011;46208;44.634;10.492;2023-03-13T00:06:12;1.63;;;1.52;;
60368;SDS011;46208;44.634;10.492;2023-03-13T00:09:15;1.40;;;1.23;;
60368;SDS011;46208;44.634;10.492;2023-03-13T00:12:19;0.95;;;0.85;;
60368;SDS011;46208;44.634;10.492;2023-03-13T00:15:22;2.00;;;1.83;;
60368;SDS011;46208;44.634;10.492;2023-03-13T00:18:25;1.98;;;1.00;;
60368;SDS011;46208;44.634;10.492;2023-03-13T00:21:29;1.65;;;1.55;;
60368;SDS011;46208;44.634;10.492;2023-03-13T00:24:32;2.80;;;1.70;;
60368;SDS011;46208;44.634;10.492;2023-03-13T00:27:36;1.10;;;1.10;;
60368;SDS011;46208;44.634;10.492;2023-03-13T00:30:39;1.15;;;1.05;;
60368;SDS011;46208;44.634;10.492;2023-03-13T00:33:43;2.80;;;1.27;;
60368;SDS011;46208;44.634;10.492;2023-03-13T00:36:47;1.88;;;1.42;;
60368;SDS011;46208;44.634;10.492;2023-03-13T00:39:51;1.17;;;1.08;;
60368;SDS011;46208;44.634;10.492;2023-03-13T00:42:54;1.77;;;1.67;;
60368;SDS011;46208;44.634;10.492;2023-03-13T00:45:57;6.05;;;1.60;;
60368;SDS011;46208;44.634;10.492;2023-03-13T00:49:02;1.83;;;1.33;;
60368;SDS011;46208;44.634;10.492;2023-03-13T00:52:06;1.63;;;1.23;;
60368;SDS011;46208;44.634;10.492;2023-03-13T00:55:09;1.90;;;1.65;;
60368;SDS011;46208;44.634;10.492;2023-03-13T00:58:12;1.58;;;1.48;;
60368;SDS011;46208;44.634;10.492;2023-03-13T01:04:18;0.90;;;0.75;;
60368;SDS011;46208;44.634;10.492;2023-03-13T01:07:22;2.17;;;1.30;;
60368;SDS011;46208;44.634;10.492;2023-03-13T01:10:25;4.55;;;1.90;;
60368;SDS011;46208;44.634;10.492;2023-03-13T01:13:29;2.15;;;1.52;;
60368;SDS011;46208;44.634;10.492;2023-03-13T01:16:34;2.38;;;1.55;;
60368;SDS011;46208;44.634;10.492;2023-03-13T01:19:38;1.80;;;1.70;;
60368;SDS011;46208;44.634;10.492;2023-03-13T01:22:41;2.25;;;1.58;;
60368;SDS011;46208;44.634;10.492;2023-03-13T01:25:44;3.95;;;1.52;;
60368;SDS011;46208;44.634;10.492;2023-03-13T01:28:48;3.05;;;1.38;;
60368;SDS011;46208;44.634;10.492;2023-03-13T01:31:53;3.03;;;1.17;;
60368;SDS011;46208;44.634;10.492;2023-03-13T01:34:56;2.05;;;1.38;;
60368;SDS011;46208;44.634;10.492;2023-03-13T01:38:02;1.80;;;0.90;;
60368;SDS011;46208;44.634;10.492;2023-03-13T01:41:05;2.75;;;0.98;;
60368;SDS011;46208;44.634;10.492;2023-03-13T01:44:17;4.90;;;1.90;;
60368;SDS011;46208;44.634;10.492;2023-03-13T01:47:22;1.95;;;1.63;;
60368;SDS011;46208;44.634;10.492;2023-03-13T01:50:41;5.88;;;2.03;;
60368;SDS011;46208;44.634;10.492;2023-03-13T01:53:59;1.35;;;1.05;;
60368;SDS011;46208;44.634;10.492;2023-03-13T02:00:13;2.38;;;2.17;;
60368;SDS011;46208;44.634;10.492;2023-03-13T02:03:19;2.40;;;1.08;;
60368;SDS011;46208;44.634;10.492;2023-03-13T02:06:23;1.50;;;0.95;;
60368;SDS011;46208;44.634;10.492;2023-03-13T02:09:27;1.52;;;1.35;;
60368;SDS011;46208;44.634;10.492;2023-03-13T02:12:34;3.22;;;1.50;;
60368;SDS011;46208;44.634;10.492;2023-03-13T02:15:38;2.33;;;1.92;;
60368;SDS011;46208;44.634;10.492;2023-03-13T02:18:42;2.97;;;1.63;;
60368;SDS011;46208;44.634;10.492;2023-03-13T02:21:52;4.38;;;1.52;;
60368;SDS011;46208;44.634;10.492;2023-03-13T02:28:24;1.73;;;1.17;;
60368;SDS011;46208;44.634;10.492;2023-03-13T02:31:29;3.60;;;1.65;;
60368;SDS011;46208;44.634;10.492;2023-03-13T02:34:34;1.25;;;0.93;;
60368;SDS011;46208;44.634;10.492;2023-03-13T02:37:41;0.80;;;0.77;;
60368;SDS011;46208;44.634;10.492;2023-03-13T02:40:49;1.85;;;1.63;;
60368;SDS011;46208;44.634;10.492;2023-03-13T02:43:54;4.03;;;1.40;;
60368;SDS011;46208;44.634;10.492;2023-03-13T02:46:57;2.40;;;1.52;;
60368;SDS011;46208;44.634;10.492;2023-03-13T02:50:03;6.15;;;1.13;;
60368;SDS011;46208;44.634;10.492;2023-03-13T02:53:07;0.88;;;0.80;;
60368;SDS011;46208;44.634;10.492;2023-03-13T02:56:11;4.47;;;1.33;;
60368;SDS011;46208;44.634;10.492;2023-03-13T02:59:16;1.33;;;0.95;;
60368;SDS011;46208;44.634;10.492;2023-03-13T03:02:22;4.70;;;2.20;;
60368;SDS011;46208;44.634;10.492;2023-03-13T03:05:26;1.83;;;1.10;;
60368;SDS011;46208;44.634;10.492;2023-03-13T03:08:29;1.75;;;1.15;;
60368;SDS011;46208;44.634;10.492;2023-03-13T03:11:34;2.58;;;1.38;;
60368;SDS011;46208;44.634;10.492;2023-03-13T03:14:42;0.98;;;0.88;;
60368;SDS011;46208;44.634;10.492;2023-03-13T03:17:46;0.82;;;0.82;;
60368;SDS011;46208;44.634;10.492;2023-03-13T03:20:50;5.38;;;1.52;;
60368;SDS011;46208;44.634;10.492;2023-03-13T03:23:55;7.25;;;2.10;;
60368;SDS011;46208;44.634;10.492;2023-03-13T03:27:00;2.65;;;1.52;;
60368;SDS011;46208;44.634;10.492;2023-03-13T03:30:10;2.28;;;1.00;;
60368;SDS011;46208;44.634;10.492;2023-03-13T03:33:15;1.35;;;1.25;;
60368;SDS011;46208;44.634;10.492;2023-03-13T03:36:20;1.48;;;1.27;;
60368;SDS011;46208;44.634;10.492;2023-03-13T03:39:24;2.35;;;1.42;;
60368;SDS011;46208;44.634;10.492;2023-03-13T03:42:29;1.58;;;1.35;;
60368;SDS011;46208;44.634;10.492;2023-03-13T03:45:33;2.83;;;1.65;;
60368;SDS011;46208;44.634;10.492;2023-03-13T03:48:38;1.15;;;1.05;;
60368;SDS011;46208;44.634;10.492;2023-03-13T03:51:44;3.22;;;1.48;;
60368;SDS011;46208;44.634;10.492;2023-03-13T03:55:13;2.35;;;1.45;;
60368;SDS011;46208;44.634;10.492;2023-03-13T03:58:16;3.25;;;1.80;;
60368;SDS011;46208;44.634;10.492;2023-03-13T04:04:39;2.75;;;1.23;;
60368;SDS011;46208;44.634;10.492;2023-03-13T04:07:47;1.80;;;1.52;;
60368;SDS011;46208;44.634;10.492;2023-03-13T04:10:51;7.10;;;2.15;;
60368;SDS011;46208;44.634;10.492;2023-03-13T04:13:58;2.05;;;1.30;;
60368;SDS011;46208;44.634;10.492;2023-03-13T04:17:02;2.40;;;1.10;;
60368;SDS011;46208;44.634;10.492;2023-03-13T04:20:06;3.05;;;2.80;;
60368;SDS011;46208;44.634;10.492;2023-03-13T04:23:11;3.15;;;1.98;;
60368;SDS011;46208;44.634;10.492;2023-03-13T04:26:15;6.47;;;2.40;;
60368;SDS011;46208;44.634;10.492;2023-03-13T04:29:20;2.70;;;1.88;;
60368;SDS011;46208;44.634;10.492;2023-03-13T04:32:33;3.00;;;2.08;;
60368;SDS011;46208;44.634;10.492;2023-03-13T04:35:59;1.67;;;1.58;;
60368;SDS011;46208;44.634;10.492;2023-03-13T04:39:26;3.67;;;2.10;;
60368;SDS011;46208;44.634;10.492;2023-03-13T04:42:47;7.47;;;1.65;;
60368;SDS011;46208;44.634;10.492;2023-03-13T04:46:20;2.67;;;1.85;;
60368;SDS011;46208;44.634;10.492;2023-03-13T04:49:39;5.20;;;1.48;;
60368;SDS011;46208;44.634;10.492;2023-03-13T04:53:05;5.70;;;2.15;;
60368;SDS011;46208;44.634;10.492;2023-03-13T04:56:31;2.92;;;1.80;;
60368;SDS011;46208;44.634;10.492;2023-03-13T05:00:07;3.10;;;2.03;;
60368;SDS011;46208;44.634;10.492;2023-03-13T05:03:24;2.92;;;2.30;;
60368;SDS011;46208;44.634;10.492;2023-03-13T05:06:41;5.22;;;1.92;;
60368;SDS011;46208;44.634;10.492;2023-03-13T05:10:03;7.05;;;2.50;;
60368;SDS011;46208;44.634;10.492;2023-03-13T05:13:39;1.83;;;1.27;;
60368;SDS011;46208;44.634;10.492;2023-03-13T05:17:13;3.33;;;2.08;;
60368;SDS011;46208;44.634;10.492;2023-03-13T05:20:35;3.38;;;1.63;;
60368;SDS011;46208;44.634;10.492;2023-03-13T05:24:17;1.40;;;1.30;;
60368;SDS011;46208;44.634;10.492;2023-03-13T05:27:41;2.42;;;1.65;;
60368;SDS011;46208;44.634;10.492;2023-03-13T05:31:10;1.67;;;1.58;;
60368;SDS011;46208;44.634;10.492;2023-03-13T05:34:34;2.50;;;1.67;;
60368;SDS011;46208;44.634;10.492;2023-03-13T05:37:45;6.63;;;2.58;;
60368;SDS011;46208;44.634;10.492;2023-03-13T05:41:09;2.20;;;2.00;;
60368;SDS011;46208;44.634;10.492;2023-03-13T05:44:29;1.90;;;1.80;;
60368;SDS011;46208;44.634;10.492;2023-03-13T05:47:55;2.83;;;2.08;;
60368;SDS011;46208;44.634;10.492;2023-03-13T05:51:30;1.52;;;1.42;;
60368;SDS011;46208;44.634;10.492;2023-03-13T05:54:52;2.72;;;1.27;;
60368;SDS011;46208;44.634;10.492;2023-03-13T05:58:19;2.83;;;1.13;;
60368;SDS011;46208;44.634;10.492;2023-03-13T06:01:34;4.72;;;1.45;;
60368;SDS011;46208;44.634;10.492;2023-03-13T06:04:54;3.42;;;1.98;;
60368;SDS011;46208;44.634;10.492;2023-03-13T06:07:57;2.83;;;1.65;;
60368;SDS011;46208;44.634;10.492;2023-03-13T06:11:03;2.90;;;1.65;;
60368;SDS011;46208;44.634;10.492;2023-03-13T06:14:08;5.22;;;2.72;;
60368;SDS011;46208;44.634;10.492;2023-03-13T06:17:17;6.72;;;3.33;;
60368;SDS011;46208;44.634;10.492;2023-03-13T06:20:20;7.90;;;2.63;;
60368;SDS011;46208;44.634;10.492;2023-03-13T06:23:25;4.35;;;2.80;;
60368;SDS011;46208;44.634;10.492;2023-03-13T06:26:28;6.30;;;2.40;;
60368;SDS011;46208;44.634;10.492;2023-03-13T06:29:32;3.72;;;2.70;;
60368;SDS011;46208;44.634;10.492;2023-03-13T06:32:35;6.50;;;2.63;;
60368;SDS011;46208;44.634;10.492;2023-03-13T06:35:38;4.03;;;2.13;;
60368;SDS011;46208;44.634;10.492;2023-03-13T06:38:42;5.22;;;3.30;;
60368;SDS011;46208;44.634;10.492;2023-03-13T06:41:45;3.30;;;1.98;;
60368;SDS011;46208;44.634;10.492;2023-03-13T06:44:50;4.18;;;3.78;;
60368;SDS011;46208;44.634;10.492;2023-03-13T06:47:54;4.55;;;2.60;;
60368;SDS011;46208;44.634;10.492;2023-03-13T06:50:57;3.88;;;1.90;;
60368;SDS011;46208;44.634;10.492;2023-03-13T06:54:00;4.65;;;3.28;;
60368;SDS011;46208;44.634;10.492;2023-03-13T06:57:04;3.63;;;2.03;;
60368;SDS011;46208;44.634;10.492;2023-03-13T07:00:08;1.85;;;1.70;;
60368;SDS011;46208;44.634;10.492;2023-03-13T07:03:13;3.17;;;2.45;;
60368;SDS011;46208;44.634;10.492;2023-03-13T07:06:16;6.18;;;2.70;;
60368;SDS011;46208;44.634;10.492;2023-03-13T07:09:20;3.20;;;2.90;;
60368;SDS011;46208;44.634;10.492;2023-03-13T07:12:23;5.75;;;2.90;;
60368;SDS011;46208;44.634;10.492;2023-03-13T07:15:27;2.95;;;1.92;;
60368;SDS011;46208;44.634;10.492;2023-03-13T07:18:30;3.92;;;3.33;;
60368;SDS011;46208;44.634;10.492;2023-03-13T07:21:34;2.03;;;1.88;;
60368;SDS011;46208;44.634;10.492;2023-03-13T07:24:37;2.97;;;2.78;;
60368;SDS011;46208;44.634;10.492;2023-03-13T07:27:40;3.85;;;2.30;;
60368;SDS011;46208;44.634;10.492;2023-03-13T07:30:44;2.15;;;1.88;;
60368;SDS011;46208;44.634;10.492;2023-03-13T07:33:48;4.45;;;1.92;;
60368;SDS011;46208;44.634;10.492;2023-03-13T07:36:54;3.70;;;2.10;;
60368;SDS011;46208;44.634;10.492;2023-03-13T07:39:57;3.15;;;2.85;;
60368;SDS011;46208;44.634;10.492;2023-03-13T07:43:00;5.95;;;2.97;;
60368;SDS011;46208;44.634;10.492;2023-03-13T07:46:05;6.57;;;2.60;;
60368;SDS011;46208;44.634;10.492;2023-03-13T07:49:08;5.28;;;3.40;;
60368;SDS011;46208;44.634;10.492;2023-03-13T07:52:11;5.38;;;4.00;;
60368;SDS011;46208;44.634;10.492;2023-03-13T07:55:15;6.95;;;3.28;;
60368;SDS011;46208;44.634;10.492;2023-03-13T07:58:18;3.25;;;2.63;;
60368;SDS011;46208;44.634;10.492;2023-03-13T08:01:22;5.85;;;2.83;;
60368;SDS011;46208;44.634;10.492;2023-03-13T08:04:26;5.03;;;3.67;;
60368;SDS011;46208;44.634;10.492;2023-03-13T08:07:30;6.65;;;2.75;;
60368;SDS011;46208;44.634;10.492;2023-03-13T08:10:33;4.63;;;4.22;;
60368;SDS011;46208;44.634;10.492;2023-03-13T08:13:36;3.83;;;3.05;;
60368;SDS011;46208;44.634;10.492;2023-03-13T08:16:40;4.25;;;3.60;;
60368;SDS011;46208;44.634;10.492;2023-03-13T08:19:43;4.68;;;3.42;;
60368;SDS011;46208;44.634;10.492;2023-03-13T08:22:47;4.70;;;3.55;;
60368;SDS011;46208;44.634;10.492;2023-03-13T08:25:50;5.32;;;3.80;;
60368;SDS011;46208;44.634;10.492;2023-03-13T08:28:55;3.53;;;3.00;;
60368;SDS011;46208;44.634;10.492;2023-03-13T08:31:58;5.50;;;2.90;;
60368;SDS011;46208;44.634;10.492;2023-03-13T08:35:02;9.25;;;4.15;;
60368;SDS011;46208;44.634;10.492;2023-03-13T08:38:05;7.97;;;4.60;;
60368;SDS011;46208;44.634;10.492;2023-03-13T08:41:27;16.95;;;4.28;;
60368;SDS011;46208;44.634;10.492;2023-03-13T08:44:31;12.55;;;3.72;;
60368;SDS011;46208;44.634;10.492;2023-03-13T08:47:34;9.15;;;2.75;;
60368;SDS011;46208;44.634;10.492;2023-03-13T08:50:37;5.40;;;3.10;;
60368;SDS011;46208;44.634;10.492;2023-03-13T08:53:41;6.40;;;3.13;;
60368;SDS011;46208;44.634;10.492;2023-03-13T08:56:45;4.50;;;3.35;;
60368;SDS011;46208;44.634;10.492;2023-03-13T08:59:49;6.15;;;3.35;;
60368;SDS011;46208;44.634;10.492;2023-03-13T09:02:55;5.45;;;2.83;;
60368;SDS011;46208;44.634;10.492;2023-03-13T09:05:59;4.75;;;3.13;;
60368;SDS011;46208;44.634;10.492;2023-03-13T09:09:03;3.50;;;3.03;;
60368;SDS011;46208;44.634;10.492;2023-03-13T09:12:07;4.70;;;3.60;;
60368;SDS011;46208;44.634;10.492;2023-03-13T09:15:11;6.50;;;3.03;;
60368;SDS011;46208;44.634;10.492;2023-03-13T09:18:14;7.47;;;3.33;;
60368;SDS011;46208;44.634;10.492;2023-03-13T09:21:19;7.78;;;3.85;;
60368;SDS011;46208;44.634;10.492;2023-03-13T09:24:23;5.60;;;3.85;;
60368;SDS011;46208;44.634;10.492;2023-03-13T09:27:26;5.90;;;4.03;;
60368;SDS011;46208;44.634;10.492;2023-03-13T09:30:30;5.93;;;3.53;;
60368;SDS011;46208;44.634;10.492;2023-03-13T09:33:33;5.38;;;2.60;;
60368;SDS011;46208;44.634;10.492;2023-03-13T09:36:37;6.20;;;3.45;;
60368;SDS011;46208;44.634;10.492;2023-03-13T09:39:40;4.05;;;3.10;;
60368;SDS011;46208;44.634;10.492;2023-03-13T09:45:46;4.43;;;3.20;;
60368;SDS011;46208;44.634;10.492;2023-03-13T09:48:53;4.20;;;3.33;;
60368;SDS011;46208;44.634;10.492;2023-03-13T09:55:25;10.65;;;4.90;;
60368;SDS011;46208;44.634;10.492;2023-03-13T10:01:34;20.00;;;10.77;;
60368;SDS011;46208;44.634;10.492;2023-03-13T10:04:43;9.27;;;4.63;;
60368;SDS011;46208;44.634;10.492;2023-03-13T10:07:47;4.88;;;3.38;;
60368;SDS011;46208;44.634;10.492;2023-03-13T10:17:21;4.38;;;3.05;;
60368;SDS011;46208;44.634;10.492;2023-03-13T10:20:28;8.30;;;4.28;;
60368;SDS011;46208;44.634;10.492;2023-03-13T10:23:37;7.82;;;3.53;;
60368;SDS011;46208;44.634;10.492;2023-03-13T10:26:41;3.80;;;2.67;;
60368;SDS011;46208;44.634;10.492;2023-03-13T10:29:44;4.88;;;3.15;;
60368;SDS011;46208;44.634;10.492;2023-03-13T10:32:47;11.48;;;3.85;;
60368;SDS011;46208;44.634;10.492;2023-03-13T10:36:10;4.47;;;3.28;;
60368;SDS011;46208;44.634;10.492;2023-03-13T10:39:15;7.63;;;3.55;;
60368;SDS011;46208;44.634;10.492;2023-03-13T10:42:20;6.80;;;4.03;;
60368;SDS011;46208;44.634;10.492;2023-03-13T10:45:24;7.32;;;4.00;;
60368;SDS011;46208;44.634;10.492;2023-03-13T10:48:39;7.75;;;3.95;;
60368;SDS011;46208;44.634;10.492;2023-03-13T10:51:45;4.78;;;3.55;;
60368;SDS011;46208;44.634;10.492;2023-03-13T10:54:50;3.67;;;3.10;;
60368;SDS011;46208;44.634;10.492;2023-03-13T10:57:59;5.13;;;3.38;;
60368;SDS011;46208;44.634;10.492;2023-03-13T11:01:13;3.83;;;3.40;;
60368;SDS011;46208;44.634;10.492;2023-03-13T11:04:28;6.60;;;3.42;;
60368;SDS011;46208;44.634;10.492;2023-03-13T11:07:33;7.10;;;3.67;;
60368;SDS011;46208;44.634;10.492;2023-03-13T11:10:37;3.95;;;2.97;;
60368;SDS011;46208;44.634;10.492;2023-03-13T11:13:52;3.85;;;3.05;;
60368;SDS011;46208;44.634;10.492;2023-03-13T11:23:48;7.70;;;2.95;;
60368;SDS011;46208;44.634;10.492;2023-03-13T11:26:55;4.43;;;3.45;;
60368;SDS011;46208;44.634;10.492;2023-03-13T11:36:29;3.28;;;2.97;;
60368;SDS011;46208;44.634;10.492;2023-03-13T11:46:06;5.75;;;3.50;;
60368;SDS011;46208;44.634;10.492;2023-03-13T11:55:48;4.10;;;3.22;;
60368;SDS011;46208;44.634;10.492;2023-03-13T12:02:31;3.70;;;2.55;;
60368;SDS011;46208;44.634;10.492;2023-03-13T12:05:43;6.70;;;3.50;;
60368;SDS011;46208;44.634;10.492;2023-03-13T12:08:49;10.93;;;4.80;;
60368;SDS011;46208;44.634;10.492;2023-03-13T12:12:09;5.25;;;3.55;;
60368;SDS011;46208;44.634;10.492;2023-03-13T12:15:25;6.85;;;3.35;;
60368;SDS011;46208;44.634;10.492;2023-03-13T12:18:31;5.20;;;3.20;;
60368;SDS011;46208;44.634;10.492;2023-03-13T12:21:47;5.40;;;3.20;;
60368;SDS011;46208;44.634;10.492;2023-03-13T12:24:55;6.78;;;4.35;;
60368;SDS011;46208;44.634;10.492;2023-03-13T12:31:32;7.65;;;4.35;;
60368;SDS011;46208;44.634;10.492;2023-03-13T12:34:40;4.30;;;3.72;;
60368;SDS011;46208;44.634;10.492;2023-03-13T12:38:00;10.15;;;5.05;;
60368;SDS011;46208;44.634;10.492;2023-03-13T12:41:23;9.15;;;4.78;;
60368;SDS011;46208;44.634;10.492;2023-03-13T12:44:28;3.75;;;3.22;;
60368;SDS011;46208;44.634;10.492;2023-03-13T12:59:54;6.60;;;4.13;;
60368;SDS011;46208;44.634;10.492;2023-03-13T13:06:09;6.38;;;3.80;;
60368;SDS011;46208;44.634;10.492;2023-03-13T13:09:15;7.93;;;5.82;;
60368;SDS011;46208;44.634;10.492;2023-03-13T13:12:21;7.30;;;4.10;;
60368;SDS011;46208;44.634;10.492;2023-03-13T13:15:26;6.68;;;5.03;;
60368;SDS011;46208;44.634;10.492;2023-03-13T13:18:30;12.18;;;3.88;;
60368;SDS011;46208;44.634;10.492;2023-03-13T13:21:34;6.20;;;4.05;;
60368;SDS011;46208;44.634;10.492;2023-03-13T13:24:39;5.32;;;4.00;;
60368;SDS011;46208;44.634;10.492;2023-03-13T13:30:46;6.78;;;4.05;;
60368;SDS011;46208;44.634;10.492;2023-03-13T13:33:49;7.15;;;4.78;;
60368;SDS011;46208;44.634;10.492;2023-03-13T13:36:53;6.20;;;3.60;;
60368;SDS011;46208;44.634;10.492;2023-03-13T13:43:20;7.68;;;4.38;;
60368;SDS011;46208;44.634;10.492;2023-03-13T13:49:31;9.50;;;3.88;;
60368;SDS011;46208;44.634;10.492;2023-03-13T13:52:39;5.60;;;3.40;;
60368;SDS011;46208;44.634;10.492;2023-03-13T13:55:43;8.00;;;4.28;;
60368;SDS011;46208;44.634;10.492;2023-03-13T13:58:46;9.60;;;3.58;;
60368;SDS011;46208;44.634;10.492;2023-03-13T14:02:04;5.95;;;3.53;;
60368;SDS011;46208;44.634;10.492;2023-03-13T14:08:26;5.55;;;3.28;;
60368;SDS011;46208;44.634;10.492;2023-03-13T14:11:32;8.60;;;4.30;;
60368;SDS011;46208;44.634;10.492;2023-03-13T14:14:38;6.38;;;4.28;;
60368;SDS011;46208;44.634;10.492;2023-03-13T14:17:42;5.57;;;3.50;;
60368;SDS011;46208;44.634;10.492;2023-03-13T14:20:54;6.65;;;4.32;;
60368;SDS011;46208;44.634;10.492;2023-03-13T14:23:58;5.90;;;3.55;;
60368;SDS011;46208;44.634;10.492;2023-03-13T14:27:01;4.97;;;3.55;;
60368;SDS011;46208;44.634;10.492;2023-03-13T14:30:06;5.50;;;3.60;;
60368;SDS011;46208;44.634;10.492;2023-03-13T14:36:16;5.95;;;3.58;;
60368;SDS011;46208;44.634;10.492;2023-03-13T14:42:40;5.20;;;3.65;;
60368;SDS011;46208;44.634;10.492;2023-03-13T14:45:45;8.05;;;4.30;;
60368;SDS011;46208;44.634;10.492;2023-03-13T14:48:49;6.03;;;4.30;;
60368;SDS011;46208;44.634;10.492;2023-03-13T14:55:27;7.03;;;3.50;;
60368;SDS011;46208;44.634;10.492;2023-03-13T14:58:29;5.70;;;3.53;;
60368;SDS011;46208;44.634;10.492;2023-03-13T15:01:33;8.18;;;4.00;;
60368;SDS011;46208;44.634;10.492;2023-03-13T15:08:03;6.70;;;3.33;;
60368;SDS011;46208;44.634;10.492;2023-03-13T15:14:38;7.00;;;4.38;;
60368;SDS011;46208;44.634;10.492;2023-03-13T15:17:42;9.93;;;5.30;;
60368;SDS011;46208;44.634;10.492;2023-03-13T15:20:49;6.90;;;3.92;;
60368;SDS011;46208;44.634;10.492;2023-03-13T15:26:59;9.45;;;5.93;;
60368;SDS011;46208;44.634;10.492;2023-03-13T15:30:02;7.57;;;4.32;;
60368;SDS011;46208;44.634;10.492;2023-03-13T15:33:09;5.60;;;4.13;;
60368;SDS011;46208;44.634;10.492;2023-03-13T15:36:14;5.35;;;4.22;;
60368;SDS011;46208;44.634;10.492;2023-03-13T15:39:18;3.60;;;3.30;;
60368;SDS011;46208;44.634;10.492;2023-03-13T15:42:22;9.60;;;4.53;;
60368;SDS011;46208;44.634;10.492;2023-03-13T15:45:25;5.20;;;3.78;;
60368;SDS011;46208;44.634;10.492;2023-03-13T15:48:29;5.43;;;4.40;;
60368;SDS011;46208;44.634;10.492;2023-03-13T15:51:34;5.80;;;4.22;;
60368;SDS011;46208;44.634;10.492;2023-03-13T15:54:37;5.18;;;4.35;;
60368;SDS011;46208;44.634;10.492;2023-03-13T15:57:41;3.95;;;3.55;;
60368;SDS011;46208;44.634;10.492;2023-03-13T16:00:46;2.83;;;2.60;;
60368;SDS011;46208;44.634;10.492;2023-03-13T16:03:50;4.93;;;3.85;;
60368;SDS011;46208;44.634;10.492;2023-03-13T16:06:53;3.67;;;3.20;;
60368;SDS011;46208;44.634;10.492;2023-03-13T16:09:56;3.85;;;3.45;;
60368;SDS011;46208;44.634;10.492;2023-03-13T16:13:00;4.85;;;3.30;;
60368;SDS011;46208;44.634;10.492;2023-03-13T16:16:16;4.25;;;3.33;;
60368;SDS011;46208;44.634;10.492;2023-03-13T16:19:20;3.67;;;3.30;;
60368;SDS011;46208;44.634;10.492;2023-03-13T16:22:23;4.60;;;3.67;;
60368;SDS011;46208;44.634;10.492;2023-03-13T16:25:26;5.32;;;3.33;;
60368;SDS011;46208;44.634;10.492;2023-03-13T16:28:29;6.20;;;3.20;;
60368;SDS011;46208;44.634;10.492;2023-03-13T16:31:32;4.97;;;3.53;;
60368;SDS011;46208;44.634;10.492;2023-03-13T16:34:35;3.67;;;2.75;;
60368;SDS011;46208;44.634;10.492;2023-03-13T16:37:39;3.47;;;3.15;;
60368;SDS011;46208;44.634;10.492;2023-03-13T16:40:42;5.07;;;3.08;;
60368;SDS011;46208;44.634;10.492;2023-03-13T16:43:45;5.22;;;3.65;;
60368;SDS011;46208;44.634;10.492;2023-03-13T16:46:49;3.55;;;3.25;;
60368;SDS011;46208;44.634;10.492;2023-03-13T16:49:52;4.70;;;3.60;;
60368;SDS011;46208;44.634;10.492;2023-03-13T16:52:56;4.13;;;3.45;;
60368;SDS011;46208;44.634;10.492;2023-03-13T16:55:59;5.30;;;3.42;;
60368;SDS011;46208;44.634;10.492;2023-03-13T16:59:03;4.47;;;2.70;;
60368;SDS011;46208;44.634;10.492;2023-03-13T17:02:14;4.57;;;2.75;;
60368;SDS011;46208;44.634;10.492;2023-03-13T17:05:18;4.95;;;3.55;;
60368;SDS011;46208;44.634;10.492;2023-03-13T17:08:21;3.30;;;3.00;;
60368;SDS011;46208;44.634;10.492;2023-03-13T17:11:25;6.40;;;3.08;;
60368;SDS011;46208;44.634;10.492;2023-03-13T17:14:28;3.85;;;3.22;;
60368;SDS011;46208;44.634;10.492;2023-03-13T17:17:31;4.38;;;2.58;;
60368;SDS011;46208;44.634;10.492;2023-03-13T17:20:35;2.70;;;2.17;;
60368;SDS011;46208;44.634;10.492;2023-03-13T17:23:38;4.38;;;2.72;;
60368;SDS011;46208;44.634;10.492;2023-03-13T17:26:41;3.65;;;2.72;;
60368;SDS011;46208;44.634;10.492;2023-03-13T17:29:45;5.07;;;2.70;;
60368;SDS011;46208;44.634;10.492;2023-03-13T17:32:48;3.47;;;2.45;;
60368;SDS011;46208;44.634;10.492;2023-03-13T17:35:52;5.35;;;2.78;;
60368;SDS011;46208;44.634;10.492;2023-03-13T17:38:56;5.57;;;3.15;;
60368;SDS011;46208;44.634;10.492;2023-03-13T17:42:00;2.95;;;2.67;;
60368;SDS011;46208;44.634;10.492;2023-03-13T17:45:06;4.03;;;3.35;;
60368;SDS011;46208;44.634;10.492;2023-03-13T17:48:10;3.00;;;2.75;;
60368;SDS011;46208;44.634;10.492;2023-03-13T17:51:15;5.65;;;2.95;;
60368;SDS011;46208;44.634;10.492;2023-03-13T17:54:19;4.28;;;3.33;;
60368;SDS011;46208;44.634;10.492;2023-03-13T17:57:24;7.30;;;4.85;;
60368;SDS011;46208;44.634;10.492;2023-03-13T18:00:29;7.03;;;4.60;;
60368;SDS011;46208;44.634;10.492;2023-03-13T18:03:34;4.90;;;4.07;;
60368;SDS011;46208;44.634;10.492;2023-03-13T18:09:40;7.38;;;3.83;;
60368;SDS011;46208;44.634;10.492;2023-03-13T18:12:43;5.22;;;4.00;;
60368;SDS011;46208;44.634;10.492;2023-03-13T18:15:46;6.57;;;3.88;;
60368;SDS011;46208;44.634;10.492;2023-03-13T18:18:50;7.13;;;4.75;;
60368;SDS011;46208;44.634;10.492;2023-03-13T18:21:54;6.20;;;4.50;;
60368;SDS011;46208;44.634;10.492;2023-03-13T18:24:57;4.88;;;4.10;;
60368;SDS011;46208;44.634;10.492;2023-03-13T18:28:00;7.10;;;4.47;;
60368;SDS011;46208;44.634;10.492;2023-03-13T18:31:03;9.18;;;3.50;;
60368;SDS011;46208;44.634;10.492;2023-03-13T18:34:07;5.18;;;2.65;;
60368;SDS011;46208;44.634;10.492;2023-03-13T18:37:16;5.03;;;4.38;;
60368;SDS011;46208;44.634;10.492;2023-03-13T18:40:22;5.45;;;3.78;;
60368;SDS011;46208;44.634;10.492;2023-03-13T18:43:26;8.77;;;3.97;;
60368;SDS011;46208;44.634;10.492;2023-03-13T18:46:30;4.95;;;3.40;;
60368;SDS011;46208;44.634;10.492;2023-03-13T18:49:35;4.75;;;3.20;;
60368;SDS011;46208;44.634;10.492;2023-03-13T18:52:38;5.05;;;3.15;;
60368;SDS011;46208;44.634;10.492;2023-03-13T18:55:41;6.80;;;3.47;;
60368;SDS011;46208;44.634;10.492;2023-03-13T18:58:44;5.85;;;4.25;;
60368;SDS011;46208;44.634;10.492;2023-03-13T19:01:48;7.88;;;3.72;;
60368;SDS011;46208;44.634;10.492;2023-03-13T19:04:51;6.22;;;3.83;;
60368;SDS011;46208;44.634;10.492;2023-03-13T19:07:55;7.20;;;4.55;;
60368;SDS011;46208;44.634;10.492;2023-03-13T19:10:58;6.30;;;5.22;;
60368;SDS011;46208;44.634;10.492;2023-03-13T19:14:01;9.85;;;5.85;;
60368;SDS011;46208;44.634;10.492;2023-03-13T19:17:04;5.63;;;4.97;;
60368;SDS011;46208;44.634;10.492;2023-03-13T19:20:13;8.52;;;5.30;;
60368;SDS011;46208;44.634;10.492;2023-03-13T19:23:17;5.55;;;4.63;;
60368;SDS011;46208;44.634;10.492;2023-03-13T19:26:30;5.45;;;4.47;;
60368;SDS011;46208;44.634;10.492;2023-03-13T19:29:35;7.32;;;4.80;;
60368;SDS011;46208;44.634;10.492;2023-03-13T19:32:39;9.23;;;4.15;;
60368;SDS011;46208;44.634;10.492;2023-03-13T19:35:42;35.55;;;15.80;;
60368;SDS011;46208;44.634;10.492;2023-03-13T19:38:46;34.65;;;16.25;;
60368;SDS011;46208;44.634;10.492;2023-03-13T19:41:50;7.55;;;5.57;;
60368;SDS011;46208;44.634;10.492;2023-03-13T19:44:54;7.53;;;4.70;;
60368;SDS011;46208;44.634;10.492;2023-03-13T19:47:58;7.53;;;4.78;;
60368;SDS011;46208;44.634;10.492;2023-03-13T19:51:01;15.25;;;8.77;;
60368;SDS011;46208;44.634;10.492;2023-03-13T19:54:05;10.00;;;6.43;;
60368;SDS011;46208;44.634;10.492;2023-03-13T19:57:10;6.82;;;4.72;;
60368;SDS011;46208;44.634;10.492;2023-03-13T20:00:21;10.05;;;5.05;;
60368;SDS011;46208;44.634;10.492;2023-03-13T20:03:25;7.00;;;5.18;;
60368;SDS011;46208;44.634;10.492;2023-03-13T20:06:30;9.52;;;6.22;;
60368;SDS011;46208;44.634;10.492;2023-03-13T20:09:33;12.18;;;6.18;;
60368;SDS011;46208;44.634;10.492;2023-03-13T20:12:37;7.50;;;5.78;;
60368;SDS011;46208;44.634;10.492;2023-03-13T20:15:41;8.30;;;5.80;;
60368;SDS011;46208;44.634;10.492;2023-03-13T20:18:46;9.30;;;6.35;;